Terminal Aerodrome Forecast
Issued by NWS Pocatello, ID

Home | Current Version | Previous Version | Text Only | Print | Product List | Glossary On
Versions: 1 2 3 4 5 6 7 8 9 10 11 12 13 14
000
FTUS45 KPIH 061720
TAFPIH
TAF
KPIH 061720Z 0618/0718 05007KT P6SM VCTS SCT060CB BKN100
     FM062100 04015G25KT P6SM -SHRA VCTS BKN060CB OVC100
      TEMPO 0622/0624 VRB20G35KT P6SM -TSRA SCT015 OVC060CB
     FM070000 18020G30KT P6SM -TSRA SCT040CB BKN060 OVC100
      TEMPO 0700/0702 VRB25G40KT 4SM TSRA OVC040CB
     FM070300 05008KT P6SM -SHRA VCTS SCT015 BKN040CB OVC100
     FM070500 VRB05KT P6SM -SHRA BKN070 BKN110=

USA.gov is the U.S. government's official web portal to all federal, state and local government web resources and services.